sensor_id;sensor_type;location;lat;lon;timestamp;pressure;altitude;pressure_sealevel;temperature;humidity
7052;BME280;3567;52.444;13.556;2022-11-02T00:00:32;101488.97;;;7.01;100.00
7052;BME280;3567;52.444;13.556;2022-11-02T00:02:59;101493.28;;;7.02;100.00
7052;BME280;3567;52.444;13.556;2022-11-02T00:05:25;101497.16;;;6.99;100.00
7052;BME280;3567;52.444;13.556;2022-11-02T00:07:51;101490.00;;;7.00;100.00
7052;BME280;3567;52.444;13.556;2022-11-02T00:10:17;101500.44;;;7.01;100.00
7052;BME280;3567;52.444;13.556;2022-11-02T00:12:44;101494.94;;;7.03;100.00
7052;BME280;3567;52.444;13.556;2022-11-02T00:15:10;101499.28;;;7.04;100.00
7052;BME280;3567;52.444;13.556;2022-11-02T00:17:37;101492.91;;;7.05;100.00
7052;BME280;3567;52.444;13.556;2022-11-02T00:20:03;101495.59;;;7.05;100.00
7052;BME280;3567;52.444;13.556;2022-11-02T00:22:30;101490.88;;;7.07;100.00
7052;BME280;3567;52.444;13.556;2022-11-02T00:24:56;101496.47;;;7.12;100.00
7052;BME280;3567;52.444;13.556;2022-11-02T00:27:22;101489.22;;;7.21;100.00
7052;BME280;3567;52.444;13.556;2022-11-02T00:29:48;101495.22;;;7.29;100.00
7052;BME280;3567;52.444;13.556;2022-11-02T00:32:13;101496.91;;;7.30;100.00
7052;BME280;3567;52.444;13.556;2022-11-02T00:34:38;101493.41;;;7.30;100.00
7052;BME280;3567;52.444;13.556;2022-11-02T00:37:04;101489.47;;;7.26;100.00
7052;BME280;3567;52.444;13.556;2022-11-02T00:39:29;101496.66;;;7.25;100.00
7052;BME280;3567;52.444;13.556;2022-11-02T00:41:55;101501.31;;;7.23;100.00
7052;BME280;3567;52.444;13.556;2022-11-02T00:44:20;101502.53;;;7.21;100.00
7052;BME280;3567;52.444;13.556;2022-11-02T00:46:45;101505.56;;;7.18;100.00
7052;BME280;3567;52.444;13.556;2022-11-02T00:49:11;101501.88;;;7.19;100.00
7052;BME280;3567;52.444;13.556;2022-11-02T00:51:36;101497.56;;;7.18;100.00
7052;BME280;3567;52.444;13.556;2022-11-02T00:54:01;101499.41;;;7.17;100.00
7052;BME280;3567;52.444;13.556;2022-11-02T00:56:27;101492.44;;;7.16;100.00
7052;BME280;3567;52.444;13.556;2022-11-02T00:58:52;101498.78;;;7.15;100.00
7052;BME280;3567;52.444;13.556;2022-11-02T01:01:17;101501.81;;;7.12;100.00
7052;BME280;3567;52.444;13.556;2022-11-02T01:03:43;101503.44;;;7.13;100.00
7052;BME280;3567;52.444;13.556;2022-11-02T01:06:13;101499.81;;;7.14;100.00
7052;BME280;3567;52.444;13.556;2022-11-02T01:08:39;101498.13;;;7.13;100.00
7052;BME280;3567;52.444;13.556;2022-11-02T01:11:16;101497.31;;;7.13;100.00
7052;BME280;3567;52.444;13.556;2022-11-02T01:13:42;101497.97;;;7.15;100.00
7052;BME280;3567;52.444;13.556;2022-11-02T01:16:08;101489.22;;;7.21;100.00
7052;BME280;3567;52.444;13.556;2022-11-02T01:18:34;101489.22;;;7.21;100.00
7052;BME280;3567;52.444;13.556;2022-11-02T01:21:00;101491.06;;;7.20;100.00
7052;BME280;3567;52.444;13.556;2022-11-02T01:23:25;101487.09;;;7.16;100.00
7052;BME280;3567;52.444;13.556;2022-11-02T01:25:51;101488.28;;;7.14;100.00
7052;BME280;3567;52.444;13.556;2022-11-02T01:28:16;101495.66;;;7.12;100.00
7052;BME280;3567;52.444;13.556;2022-11-02T01:30:42;101500.22;;;7.18;100.00
7052;BME280;3567;52.444;13.556;2022-11-02T01:33:07;101496.75;;;7.17;100.00
7052;BME280;3567;52.444;13.556;2022-11-02T01:35:35;101505.94;;;7.15;100.00
7052;BME280;3567;52.444;13.556;2022-11-02T01:38:00;101503.44;;;7.13;100.00
7052;BME280;3567;52.444;13.556;2022-11-02T01:40:26;101489.88;;;7.08;100.00
7052;BME280;3567;52.444;13.556;2022-11-02T01:42:51;101497.31;;;7.13;100.00
7052;BME280;3567;52.444;13.556;2022-11-02T01:45:16;101495.72;;;7.18;100.00
7052;BME280;3567;52.444;13.556;2022-11-02T01:47:45;101500.50;;;7.23;100.00
7052;BME280;3567;52.444;13.556;2022-11-02T01:50:20;101497.00;;;7.22;100.00
7052;BME280;3567;52.444;13.556;2022-11-02T01:52:46;101492.06;;;7.19;100.00
7052;BME280;3567;52.444;13.556;2022-11-02T01:55:17;101487.94;;;7.17;100.00
7052;BME280;3567;52.444;13.556;2022-11-02T01:57:47;101478.28;;;7.16;100.00
7052;BME280;3567;52.444;13.556;2022-11-02T02:00:15;101485.19;;;7.10;100.00
7052;BME280;3567;52.444;13.556;2022-11-02T02:02:56;101475.91;;;7.06;100.00
7052;BME280;3567;52.444;13.556;2022-11-02T02:05:25;101473.19;;;6.99;100.00
7052;BME280;3567;52.444;13.556;2022-11-02T02:07:51;101471.06;;;6.95;100.00
7052;BME280;3567;52.444;13.556;2022-11-02T02:10:17;101471.63;;;6.90;100.00
7052;BME280;3567;52.444;13.556;2022-11-02T02:12:43;101463.38;;;6.85;100.00
7052;BME280;3567;52.444;13.556;2022-11-02T02:15:09;101466.59;;;6.80;100.00
7052;BME280;3567;52.444;13.556;2022-11-02T02:20:37;101473.75;;;6.65;100.00
7052;BME280;3567;52.444;13.556;2022-11-02T02:26:34;101476.53;;;6.57;100.00
7052;BME280;3567;52.444;13.556;2022-11-02T02:28:43;101469.09;;;6.52;100.00
7052;BME280;3567;52.444;13.556;2022-11-02T02:33:57;101471.84;;;6.44;100.00
7052;BME280;3567;52.444;13.556;2022-11-02T02:36:33;101475.06;;;6.40;100.00
7052;BME280;3567;52.444;13.556;2022-11-02T02:41:39;101465.97;;;6.34;100.00
7052;BME280;3567;52.444;13.556;2022-11-02T02:44:14;101463.47;;;6.33;100.00
7052;BME280;3567;52.444;13.556;2022-11-02T02:46:45;101462.84;;;6.30;100.00
7052;BME280;3567;52.444;13.556;2022-11-02T02:49:20;101465.88;;;6.27;100.00
7052;BME280;3567;52.444;13.556;2022-11-02T02:51:50;101461.94;;;6.23;100.00
7052;BME280;3567;52.444;13.556;2022-11-02T02:54:21;101455.13;;;6.21;100.00
7052;BME280;3567;52.444;13.556;2022-11-02T02:56:52;101456.34;;;6.18;100.00
7052;BME280;3567;52.444;13.556;2022-11-02T02:59:25;101458.34;;;6.16;100.00
7052;BME280;3567;52.444;13.556;2022-11-02T03:01:53;101453.41;;;6.13;100.00
7052;BME280;3567;52.444;13.556;2022-11-02T03:04:19;101455.03;;;6.14;100.00
7052;BME280;3567;52.444;13.556;2022-11-02T03:06:51;101457.69;;;6.14;100.00
7052;BME280;3567;52.444;13.556;2022-11-02T03:17:18;101453.66;;;6.03;100.00
7052;BME280;3567;52.444;13.556;2022-11-02T03:22:44;101450.81;;;6.05;100.00
7052;BME280;3567;52.444;13.556;2022-11-02T03:25:28;101457.41;;;6.09;100.00
7052;BME280;3567;52.444;13.556;2022-11-02T03:27:56;101451.09;;;6.10;100.00
7052;BME280;3567;52.444;13.556;2022-11-02T03:30:26;101457.31;;;6.17;100.00
7052;BME280;3567;52.444;13.556;2022-11-02T03:33:04;101459.56;;;6.28;100.00
7052;BME280;3567;52.444;13.556;2022-11-02T03:35:34;101460.75;;;6.41;100.00
7052;BME280;3567;52.444;13.556;2022-11-02T03:38:11;101467.25;;;6.53;100.00
7052;BME280;3567;52.444;13.556;2022-11-02T03:40:43;101467.19;;;6.61;100.00
7052;BME280;3567;52.444;13.556;2022-11-02T03:43:10;101458.25;;;6.69;100.00
7052;BME280;3567;52.444;13.556;2022-11-02T03:45:39;101457.31;;;6.76;100.00
7052;BME280;3567;52.444;13.556;2022-11-02T03:48:08;101468.69;;;6.85;100.00
7052;BME280;3567;52.444;13.556;2022-11-02T03:50:37;101456.47;;;6.91;100.00
7052;BME280;3567;52.444;13.556;2022-11-02T03:53:10;101456.53;;;6.97;100.00
7052;BME280;3567;52.444;13.556;2022-11-02T03:55:41;101461.97;;;7.04;100.00
7052;BME280;3567;52.444;13.556;2022-11-02T03:58:10;101457.72;;;7.09;100.00
7052;BME280;3567;52.444;13.556;2022-11-02T04:00:37;101459.84;;;7.14;100.00
7052;BME280;3567;52.444;13.556;2022-11-02T04:03:09;101462.09;;;7.17;100.00
7052;BME280;3567;52.444;13.556;2022-11-02T04:05:36;101456.41;;;7.20;100.00
7052;BME280;3567;52.444;13.556;2022-11-02T04:08:02;101455.19;;;7.23;100.00
7052;BME280;3567;52.444;13.556;2022-11-02T04:10:48;101460.16;;;7.26;100.00
7052;BME280;3567;52.444;13.556;2022-11-02T04:13:34;101460.97;;;7.26;100.00
7052;BME280;3567;52.444;13.556;2022-11-02T04:16:19;101452.16;;;7.26;100.00
7052;BME280;3567;52.444;13.556;2022-11-02T04:18:44;101454.63;;;7.27;100.00
7052;BME280;3567;52.444;13.556;2022-11-02T04:21:29;101459.44;;;7.17;100.00
7052;BME280;3567;52.444;13.556;2022-11-02T04:23:55;101460.81;;;7.13;100.00
7052;BME280;3567;52.444;13.556;2022-11-02T04:26:38;101462.66;;;7.13;100.00
7052;BME280;3567;52.444;13.556;2022-11-02T04:29:04;101456.50;;;7.12;100.00
7052;BME280;3567;52.444;13.556;2022-11-02T04:31:29;101455.50;;;7.13;100.00
7052;BME280;3567;52.444;13.556;2022-11-02T04:33:55;101452.84;;;7.13;100.00
7052;BME280;3567;52.444;13.556;2022-11-02T04:36:22;101451.84;;;7.14;100.00
7052;BME280;3567;52.444;13.556;2022-11-02T04:38:47;101457.16;;;7.14;100.00
7052;BME280;3567;52.444;13.556;2022-11-02T04:41:18;101448.91;;;7.09;100.00
7052;BME280;3567;52.444;13.556;2022-11-02T04:44:03;101444.97;;;7.05;100.00
7052;BME280;3567;52.444;13.556;2022-11-02T04:46:30;101446.34;;;7.01;100.00
7052;BME280;3567;52.444;13.556;2022-11-02T04:48:57;101454.91;;;6.96;100.00
7052;BME280;3567;52.444;13.556;2022-11-02T04:51:23;101453.38;;;6.87;100.00
7052;BME280;3567;52.444;13.556;2022-11-02T04:53:51;101458.34;;;6.75;100.00
7052;BME280;3567;52.444;13.556;2022-11-02T04:56:16;101465.16;;;6.63;100.00
7052;BME280;3567;52.444;13.556;2022-11-02T04:58:42;101462.13;;;6.51;100.00
7052;BME280;3567;52.444;13.556;2022-11-02T05:01:10;101468.34;;;6.44;100.00
7052;BME280;3567;52.444;13.556;2022-11-02T05:03:38;101451.47;;;6.37;100.00
7052;BME280;3567;52.444;13.556;2022-11-02T05:06:04;101451.19;;;6.32;100.00
7052;BME280;3567;52.444;13.556;2022-11-02T05:08:29;101464.03;;;6.28;100.00
7052;BME280;3567;52.444;13.556;2022-11-02T05:10:56;101456.44;;;6.25;100.00
7052;BME280;3567;52.444;13.556;2022-11-02T05:13:22;101468.72;;;6.26;100.00
7052;BME280;3567;52.444;13.556;2022-11-02T05:15:48;101465.50;;;6.30;100.00
7052;BME280;3567;52.444;13.556;2022-11-02T05:18:14;101460.47;;;6.36;100.00
7052;BME280;3567;52.444;13.556;2022-11-02T05:20:40;101455.03;;;6.44;100.00
7052;BME280;3567;52.444;13.556;2022-11-02T05:23:05;101462.94;;;6.52;100.00
7052;BME280;3567;52.444;13.556;2022-11-02T05:25:31;101473.22;;;6.55;100.00
7052;BME280;3567;52.444;13.556;2022-11-02T05:27:56;101459.34;;;6.60;100.00
7052;BME280;3567;52.444;13.556;2022-11-02T05:30:22;101472.13;;;6.64;100.00
7052;BME280;3567;52.444;13.556;2022-11-02T05:32:48;101468.53;;;6.72;100.00
7052;BME280;3567;52.444;13.556;2022-11-02T05:35:13;101467.97;;;6.76;100.00
7052;BME280;3567;52.444;13.556;2022-11-02T05:37:39;101469.44;;;6.79;100.00
7052;BME280;3567;52.444;13.556;2022-11-02T05:40:05;101466.25;;;6.69;100.00
7052;BME280;3567;52.444;13.556;2022-11-02T05:42:30;101471.22;;;6.57;100.00
7052;BME280;3567;52.444;13.556;2022-11-02T05:44:56;101466.63;;;6.51;100.00
7052;BME280;3567;52.444;13.556;2022-11-02T05:47:21;101464.97;;;6.50;100.00
7052;BME280;3567;52.444;13.556;2022-11-02T05:49:47;101461.38;;;6.57;100.00
7052;BME280;3567;52.444;13.556;2022-11-02T05:52:12;101463.84;;;6.59;100.00
7052;BME280;3567;52.444;13.556;2022-11-02T05:54:37;101465.97;;;6.49;100.00
7052;BME280;3567;52.444;13.556;2022-11-02T05:57:02;101469.56;;;6.41;100.00
7052;BME280;3567;52.444;13.556;2022-11-02T05:59:28;101472.94;;;6.35;100.00
7052;BME280;3567;52.444;13.556;2022-11-02T06:01:53;101463.88;;;6.29;100.00
7052;BME280;3567;52.444;13.556;2022-11-02T06:04:18;101458.16;;;6.33;100.00
7052;BME280;3567;52.444;13.556;2022-11-02T06:06:44;101457.44;;;6.39;100.00
7052;BME280;3567;52.444;13.556;2022-11-02T06:09:10;101465.97;;;6.49;100.00
7052;BME280;3567;52.444;13.556;2022-11-02T06:11:35;101468.16;;;6.60;100.00
7052;BME280;3567;52.444;13.556;2022-11-02T06:14:00;101466.44;;;6.67;100.00
7052;BME280;3567;52.444;13.556;2022-11-02T06:16:27;101462.00;;;6.74;100.00
7052;BME280;3567;52.444;13.556;2022-11-02T06:18:53;101467.41;;;6.81;100.00
7052;BME280;3567;52.444;13.556;2022-11-02T06:21:18;101471.81;;;6.89;100.00
7052;BME280;3567;52.444;13.556;2022-11-02T06:23:46;101472.53;;;6.97;100.00
7052;BME280;3567;52.444;13.556;2022-11-02T06:26:12;101474.28;;;7.05;100.00
7052;BME280;3567;52.444;13.556;2022-11-02T06:28:37;101471.47;;;7.13;100.00
7052;BME280;3567;52.444;13.556;2022-11-02T06:31:02;101471.38;;;7.21;100.00
7052;BME280;3567;52.444;13.556;2022-11-02T06:33:28;101480.25;;;7.28;100.00
7052;BME280;3567;52.444;13.556;2022-11-02T06:35:54;101475.03;;;7.35;100.00
7052;BME280;3567;52.444;13.556;2022-11-02T06:38:20;101475.91;;;7.42;100.00
7052;BME280;3567;52.444;13.556;2022-11-02T06:41:00;101479.66;;;7.48;100.00
7052;BME280;3567;52.444;13.556;2022-11-02T06:43:31;101475.41;;;7.53;100.00
7052;BME280;3567;52.444;13.556;2022-11-02T06:45:57;101474.84;;;7.58;100.00
7052;BME280;3567;52.444;13.556;2022-11-02T06:48:24;101483.09;;;7.63;100.00
7052;BME280;3567;52.444;13.556;2022-11-02T06:50:49;101488.69;;;7.68;100.00
7052;BME280;3567;52.444;13.556;2022-11-02T06:53:14;101495.09;;;7.74;100.00
7052;BME280;3567;52.444;13.556;2022-11-02T06:55:40;101492.28;;;7.82;100.00
7052;BME280;3567;52.444;13.556;2022-11-02T06:58:05;101493.19;;;7.89;100.00
7052;BME280;3567;52.444;13.556;2022-11-02T07:00:31;101490.75;;;7.94;100.00
7052;BME280;3567;52.444;13.556;2022-11-02T07:03:03;101496.34;;;7.99;100.00
7052;BME280;3567;52.444;13.556;2022-11-02T07:05:33;101498.41;;;8.04;100.00
7052;BME280;3567;52.444;13.556;2022-11-02T07:07:58;101505.66;;;8.10;100.00
7052;BME280;3567;52.444;13.556;2022-11-02T07:10:24;101501.19;;;8.17;100.00
7052;BME280;3567;52.444;13.556;2022-11-02T07:12:51;101503.28;;;8.22;100.00
7052;BME280;3567;52.444;13.556;2022-11-02T07:15:18;101504.34;;;8.27;100.00
7052;BME280;3567;52.444;13.556;2022-11-02T07:17:43;101502.53;;;8.34;100.00
7052;BME280;3567;52.444;13.556;2022-11-02T07:20:09;101494.59;;;8.41;100.00
7052;BME280;3567;52.444;13.556;2022-11-02T07:22:35;101495.66;;;8.47;100.00
7052;BME280;3567;52.444;13.556;2022-11-02T07:25:00;101493.44;;;8.50;100.00
7052;BME280;3567;52.444;13.556;2022-11-02T07:27:26;101499.22;;;8.54;100.00
7052;BME280;3567;52.444;13.556;2022-11-02T07:29:51;101501.31;;;8.58;100.00
7052;BME280;3567;52.444;13.556;2022-11-02T07:32:16;101496.00;;;8.65;100.00
7052;BME280;3567;52.444;13.556;2022-11-02T07:34:42;101498.31;;;8.75;100.00
7052;BME280;3567;52.444;13.556;2022-11-02T07:37:07;101503.28;;;8.84;100.00
7052;BME280;3567;52.444;13.556;2022-11-02T07:39:32;101496.75;;;8.93;100.00
7052;BME280;3567;52.444;13.556;2022-11-02T07:41:58;101497.19;;;9.04;100.00
7052;BME280;3567;52.444;13.556;2022-11-02T07:44:23;101503.59;;;9.16;100.00
7052;BME280;3567;52.444;13.556;2022-11-02T07:46:48;101495.84;;;9.28;100.00
7052;BME280;3567;52.444;13.556;2022-11-02T07:49:14;101489.72;;;9.40;100.00
7052;BME280;3567;52.444;13.556;2022-11-02T07:51:39;101499.41;;;9.55;100.00
7052;BME280;3567;52.444;13.556;2022-11-02T07:54:05;101508.09;;;9.70;100.00
7052;BME280;3567;52.444;13.556;2022-11-02T07:56:30;101506.88;;;9.86;100.00
7052;BME280;3567;52.444;13.556;2022-11-02T07:58:55;101513.03;;;10.00;100.00
7052;BME280;3567;52.444;13.556;2022-11-02T08:01:21;101502.13;;;10.14;100.00
7052;BME280;3567;52.444;13.556;2022-11-02T08:03:48;101501.94;;;10.29;100.00
7052;BME280;3567;52.444;13.556;2022-11-02T08:06:13;101503.56;;;10.43;100.00
7052;BME280;3567;52.444;13.556;2022-11-02T08:08:39;101505.19;;;10.58;100.00
7052;BME280;3567;52.444;13.556;2022-11-02T08:11:06;101509.06;;;10.75;100.00
7052;BME280;3567;52.444;13.556;2022-11-02T08:13:32;101512.31;;;10.90;100.00
7052;BME280;3567;52.444;13.556;2022-11-02T08:15:57;101509.97;;;11.14;100.00
7052;BME280;3567;52.444;13.556;2022-11-02T08:18:24;101507.56;;;11.37;100.00
7052;BME280;3567;52.444;13.556;2022-11-02T08:20:51;101505.19;;;11.54;100.00
7052;BME280;3567;52.444;13.556;2022-11-02T08:23:18;101504.91;;;11.69;100.00
7052;BME280;3567;52.444;13.556;2022-11-02T08:25:44;101515.75;;;11.80;100.00
7052;BME280;3567;52.444;13.556;2022-11-02T08:28:14;101512.38;;;11.92;99.36
7052;BME280;3567;52.444;13.556;2022-11-02T08:30:40;101522.94;;;11.93;98.71
7052;BME280;3567;52.444;13.556;2022-11-02T08:33:07;101520.63;;;11.97;98.59
7052;BME280;3567;52.444;13.556;2022-11-02T08:35:35;101530.88;;;12.06;98.09
7052;BME280;3567;52.444;13.556;2022-11-02T08:38:02;101527.47;;;12.18;97.74
7052;BME280;3567;52.444;13.556;2022-11-02T08:40:28;101528.84;;;12.27;97.29
7052;BME280;3567;52.444;13.556;2022-11-02T08:42:57;101525.66;;;12.37;95.94
7052;BME280;3567;52.444;13.556;2022-11-02T08:45:24;101520.59;;;12.47;95.93
7052;BME280;3567;52.444;13.556;2022-11-02T08:47:49;101522.44;;;12.46;95.31
7052;BME280;3567;52.444;13.556;2022-11-02T08:50:15;101523.19;;;12.35;92.52
7052;BME280;3567;52.444;13.556;2022-11-02T08:52:40;101527.56;;;12.29;93.47
7052;BME280;3567;52.444;13.556;2022-11-02T08:55:06;101524.53;;;12.26;93.97
7052;BME280;3567;52.444;13.556;2022-11-02T08:57:31;101516.72;;;12.18;94.53
7052;BME280;3567;52.444;13.556;2022-11-02T08:59:56;101524.03;;;12.11;94.06
7052;BME280;3567;52.444;13.556;2022-11-02T09:02:22;101521.19;;;12.05;94.56
7052;BME280;3567;52.444;13.556;2022-11-02T09:04:47;101518.91;;;12.02;94.89
7052;BME280;3567;52.444;13.556;2022-11-02T09:07:13;101518.31;;;12.00;95.09
7052;BME280;3567;52.444;13.556;2022-11-02T09:09:38;101517.28;;;12.01;95.18
7052;BME280;3567;52.444;13.556;2022-11-02T09:12:04;101514.69;;;12.13;95.60
7052;BME280;3567;52.444;13.556;2022-11-02T09:14:30;101516.22;;;12.27;94.55
7052;BME280;3567;52.444;13.556;2022-11-02T09:16:55;101518.69;;;12.29;93.87
7052;BME280;3567;52.444;13.556;2022-11-02T09:19:20;101519.91;;;12.33;93.71
7052;BME280;3567;52.444;13.556;2022-11-02T09:21:46;101522.91;;;12.43;94.27
7052;BME280;3567;52.444;13.556;2022-11-02T09:24:14;101529.03;;;12.50;94.30
7052;BME280;3567;52.444;13.556;2022-11-02T09:26:39;101528.59;;;12.53;93.16
7052;BME280;3567;52.444;13.556;2022-11-02T09:29:04;101538.28;;;12.54;93.42
7052;BME280;3567;52.444;13.556;2022-11-02T09:31:30;101527.13;;;12.57;93.57
7052;BME280;3567;52.444;13.556;2022-11-02T09:33:55;101531.06;;;12.55;92.84
7052;BME280;3567;52.444;13.556;2022-11-02T09:36:20;101532.91;;;12.54;93.56
7052;BME280;3567;52.444;13.556;2022-11-02T09:38:46;101532.03;;;12.97;94.68
7052;BME280;3567;52.444;13.556;2022-11-02T09:41:18;101538.41;;;13.51;92.42
7052;BME280;3567;52.444;13.556;2022-11-02T09:46:52;101535.31;;;14.78;88.16
7052;BME280;3567;52.444;13.556;2022-11-02T09:49:20;101532.50;;;15.25;85.27
7052;BME280;3567;52.444;13.556;2022-11-02T09:51:49;101527.19;;;15.59;83.93
7052;BME280;3567;52.444;13.556;2022-11-02T09:54:28;101523.25;;;15.78;80.56
7052;BME280;3567;52.444;13.556;2022-11-02T09:56:57;101529.66;;;16.06;81.01
7052;BME280;3567;52.444;13.556;2022-11-02T09:59:25;101532.34;;;16.39;79.60
7052;BME280;3567;52.444;13.556;2022-11-02T10:02:03;101534.66;;;16.69;78.16
7052;BME280;3567;52.444;13.556;2022-11-02T10:07:23;101537.88;;;17.54;74.69
7052;BME280;3567;52.444;13.556;2022-11-02T10:09:56;101533.59;;;17.85;73.59
7052;BME280;3567;52.444;13.556;2022-11-02T10:12:33;101526.13;;;17.97;71.67
7052;BME280;3567;52.444;13.556;2022-11-02T10:15:19;101530.69;;;17.92;67.95
7052;BME280;3567;52.444;13.556;2022-11-02T10:17:49;101518.22;;;17.91;68.94
7052;BME280;3567;52.444;13.556;2022-11-02T10:20:24;101535.41;;;18.06;69.41
7052;BME280;3567;52.444;13.556;2022-11-02T10:22:53;101537.31;;;18.06;67.46
7052;BME280;3567;52.444;13.556;2022-11-02T10:25:23;101533.25;;;18.09;67.43
7052;BME280;3567;52.444;13.556;2022-11-02T10:27:52;101532.97;;;18.10;66.45
7052;BME280;3567;52.444;13.556;2022-11-02T10:30:25;101532.44;;;18.08;66.22
7052;BME280;3567;52.444;13.556;2022-11-02T10:32:54;101523.88;;;18.26;64.49
7052;BME280;3567;52.444;13.556;2022-11-02T10:35:33;101530.47;;;18.36;63.55
7052;BME280;3567;52.444;13.556;2022-11-02T10:41:11;101536.38;;;18.27;64.53
7052;BME280;3567;52.444;13.556;2022-11-02T10:52:05;101532.53;;;18.61;62.18
7052;BME280;3567;52.444;13.556;2022-11-02T10:54:32;101525.84;;;18.78;62.76
7052;BME280;3567;52.444;13.556;2022-11-02T10:56:57;101540.03;;;18.96;61.67
7052;BME280;3567;52.444;13.556;2022-11-02T10:59:24;101530.88;;;19.02;62.19
7052;BME280;3567;52.444;13.556;2022-11-02T11:04:27;101527.25;;;18.86;61.16
7052;BME280;3567;52.444;13.556;2022-11-02T11:06:54;101523.56;;;18.60;59.88
7052;BME280;3567;52.444;13.556;2022-11-02T11:09:47;101527.44;;;18.69;58.49
7052;BME280;3567;52.444;13.556;2022-11-02T11:12:16;101532.56;;;18.66;59.51
7052;BME280;3567;52.444;13.556;2022-11-02T11:14:55;101521.38;;;18.57;59.47
7052;BME280;3567;52.444;13.556;2022-11-02T11:17:38;101522.31;;;18.78;58.27
7052;BME280;3567;52.444;13.556;2022-11-02T11:20:07;101532.44;;;18.93;58.23
7052;BME280;3567;52.444;13.556;2022-11-02T11:23:15;101529.28;;;19.21;55.77
7052;BME280;3567;52.444;13.556;2022-11-02T11:25:42;101542.31;;;19.19;58.08
7052;BME280;3567;52.444;13.556;2022-11-02T11:31:14;101542.66;;;19.43;57.66
7052;BME280;3567;52.444;13.556;2022-11-02T11:36:27;101537.59;;;18.94;54.52
7052;BME280;3567;52.444;13.556;2022-11-02T11:38:57;101541.31;;;18.36;57.15
7052;BME280;3567;52.444;13.556;2022-11-02T11:41:24;101544.94;;;17.82;59.01
7052;BME280;3567;52.444;13.556;2022-11-02T11:43:50;101549.56;;;17.33;59.85
7052;BME280;3567;52.444;13.556;2022-11-02T11:46:16;101556.84;;;16.88;61.62
7052;BME280;3567;52.444;13.556;2022-11-02T11:48:49;101547.72;;;16.56;63.84
7052;BME280;3567;52.444;13.556;2022-11-02T11:51:28;101553.56;;;16.14;64.32
7052;BME280;3567;52.444;13.556;2022-11-02T11:56:43;101546.78;;;15.94;65.90
7052;BME280;3567;52.444;13.556;2022-11-02T11:59:18;101544.72;;;15.85;66.31
7052;BME280;3567;52.444;13.556;2022-11-02T12:01:44;101544.38;;;15.81;67.59
7052;BME280;3567;52.444;13.556;2022-11-02T12:04:09;101547.72;;;15.71;66.82
7052;BME280;3567;52.444;13.556;2022-11-02T12:09:44;101549.78;;;15.53;68.63
7052;BME280;3567;52.444;13.556;2022-11-02T12:18:45;101540.41;;;15.15;70.51
7052;BME280;3567;52.444;13.556;2022-11-02T12:27:22;101556.03;;;15.13;71.26
7052;BME280;3567;52.444;13.556;2022-11-02T12:29:59;101543.25;;;15.08;70.24
7052;BME280;3567;52.444;13.556;2022-11-02T12:32:57;101545.44;;;15.11;69.12
7052;BME280;3567;52.444;13.556;2022-11-02T12:41:06;101538.47;;;15.27;69.42
7052;BME280;3567;52.444;13.556;2022-11-02T12:43:46;101539.94;;;15.18;68.50
7052;BME280;3567;52.444;13.556;2022-11-02T12:48:56;101538.91;;;14.96;69.64
7052;BME280;3567;52.444;13.556;2022-11-02T12:51:29;101551.47;;;14.90;70.08
7052;BME280;3567;52.444;13.556;2022-11-02T12:53:58;101546.69;;;14.80;70.85
7052;BME280;3567;52.444;13.556;2022-11-02T12:59:24;101550.91;;;14.64;69.23
7052;BME280;3567;52.444;13.556;2022-11-02T13:01:58;101556.31;;;14.64;69.58
7052;BME280;3567;52.444;13.556;2022-11-02T13:04:31;101545.06;;;14.67;68.11
7052;BME280;3567;52.444;13.556;2022-11-02T13:07:03;101545.63;;;14.70;67.79
7052;BME280;3567;52.444;13.556;2022-11-02T13:09:33;101549.28;;;14.63;65.38
7052;BME280;3567;52.444;13.556;2022-11-02T13:12:13;101547.41;;;14.64;64.68
7052;BME280;3567;52.444;13.556;2022-11-02T13:14:48;101528.78;;;14.62;63.86
7052;BME280;3567;52.444;13.556;2022-11-02T13:17:35;101549.41;;;14.68;62.02
7052;BME280;3567;52.444;13.556;2022-11-02T13:20:20;101547.53;;;14.81;62.24
7052;BME280;3567;52.444;13.556;2022-11-02T13:22:54;101546.19;;;14.95;61.86
7052;BME280;3567;52.444;13.556;2022-11-02T13:25:31;101531.84;;;15.06;60.09
7052;BME280;3567;52.444;13.556;2022-11-02T13:28:01;101545.00;;;15.14;59.46
7052;BME280;3567;52.444;13.556;2022-11-02T13:30:28;101549.31;;;15.15;59.45
7052;BME280;3567;52.444;13.556;2022-11-02T13:33:17;101548.41;;;15.10;59.23
7052;BME280;3567;52.444;13.556;2022-11-02T13:35:45;101550.53;;;14.96;59.30
7052;BME280;3567;52.444;13.556;2022-11-02T13:40:41;101552.25;;;15.14;59.86
7052;BME280;3567;52.444;13.556;2022-11-02T13:44:11;101545.44;;;15.11;58.06
7052;BME280;3567;52.444;13.556;2022-11-02T13:48:58;101553.13;;;14.91;58.88
7052;BME280;3567;52.444;13.556;2022-11-02T13:51:57;101553.09;;;15.14;58.88
7052;BME280;3567;52.444;13.556;2022-11-02T13:54:48;101538.06;;;15.47;56.60
7052;BME280;3567;52.444;13.556;2022-11-02T13:57:33;101542.25;;;15.66;57.76
7052;BME280;3567;52.444;13.556;2022-11-02T14:00:04;101539.03;;;15.69;57.19
7052;BME280;3567;52.444;13.556;2022-11-02T14:02:34;101543.25;;;15.77;57.80
7052;BME280;3567;52.444;13.556;2022-11-02T14:05:01;101537.84;;;15.77;57.25
7052;BME280;3567;52.444;13.556;2022-11-02T14:07:35;101530.47;;;15.73;57.64
7052;BME280;3567;52.444;13.556;2022-11-02T14:10:23;101547.03;;;15.64;57.25
7052;BME280;3567;52.444;13.556;2022-11-02T14:12:48;101539.44;;;15.50;58.14
7052;BME280;3567;52.444;13.556;2022-11-02T14:18:12;101544.28;;;15.19;58.12
7052;BME280;3567;52.444;13.556;2022-11-02T14:20:40;101547.34;;;15.11;58.45
7052;BME280;3567;52.444;13.556;2022-11-02T14:25:49;101553.97;;;14.91;59.34
7052;BME280;3567;52.444;13.556;2022-11-02T14:41:48;101579.66;;;14.71;61.79
7052;BME280;3567;52.444;13.556;2022-11-02T14:44:50;101577.19;;;14.69;61.12
7052;BME280;3567;52.444;13.556;2022-11-02T14:47:28;101587.50;;;14.72;61.59
7052;BME280;3567;52.444;13.556;2022-11-02T14:52:35;101593.72;;;14.73;61.39
7052;BME280;3567;52.444;13.556;2022-11-02T14:55:05;101594.78;;;14.72;61.10